createdAt,value
2018-05-19T00:00:58.311Z,19.97
2018-05-19T00:03:26.592Z,19.00
2018-05-19T00:05:54.163Z,13.47
2018-05-19T00:08:21.641Z,27.40
2018-05-19T00:10:49.148Z,28.37
2018-05-19T00:13:16.717Z,26.80
2018-05-19T00:15:44.269Z,23.40
2018-05-19T00:18:11.776Z,31.80
2018-05-19T00:20:40.031Z,22.27
2018-05-19T00:23:08.277Z,23.47
2018-05-19T00:25:36.504Z,21.37
2018-05-19T00:28:03.993Z,22.30
2018-05-19T00:30:31.537Z,16.93
2018-05-19T00:32:59.042Z,32.63
2018-05-19T00:35:26.620Z,29.67
2018-05-19T00:37:54.140Z,30.27
2018-05-19T00:40:22.421Z,26.50
2018-05-19T00:42:49.920Z,28.10
2018-05-19T00:45:18.291Z,25.53
2018-05-19T00:47:45.809Z,15.37
2018-05-19T00:50:14.058Z,18.30
2018-05-19T00:52:41.567Z,35.73
2018-05-19T00:55:09.037Z,30.50
2018-05-19T00:57:36.643Z,24.33
2018-05-19T01:00:09.804Z,15.87
2018-05-19T01:02:37.296Z,24.43
2018-05-19T01:05:04.809Z,21.40
2018-05-19T01:07:32.290Z,23.13
2018-05-19T01:10:00.540Z,26.20
2018-05-19T01:12:28.018Z,13.03
2018-05-19T01:14:56.261Z,32.37
2018-05-19T01:17:23.737Z,18.50
2018-05-19T01:19:51.302Z,30.07
2018-05-19T01:22:18.714Z,28.13
2018-05-19T01:24:46.205Z,34.03
2018-05-19T01:27:13.686Z,24.23
2018-05-19T01:29:41.173Z,30.50
2018-05-19T01:32:08.653Z,23.53
2018-05-19T01:34:36.853Z,18.93
2018-05-19T01:37:05.528Z,23.10
2018-05-19T01:39:33.010Z,23.77
2018-05-19T01:42:00.475Z,23.53
2018-05-19T01:44:28.013Z,24.23
2018-05-19T01:46:55.495Z,29.10
2018-05-19T01:49:23.198Z,30.60
2018-05-19T01:51:50.684Z,21.23
2018-05-19T01:54:18.172Z,29.73
2018-05-19T01:56:45.649Z,31.17
2018-05-19T01:59:13.151Z,28.50
2018-05-19T02:01:41.401Z,21.30
2018-05-19T02:04:08.895Z,25.53
2018-05-19T02:06:37.200Z,29.03
2018-05-19T02:09:07.623Z,20.13
2018-05-19T02:11:35.559Z,23.07
2018-05-19T02:14:03.053Z,27.27
2018-05-19T02:16:31.296Z,23.80
2018-05-19T02:18:58.782Z,22.93
2018-05-19T02:21:26.280Z,14.87
2018-05-19T02:23:53.761Z,22.67
2018-05-19T02:26:21.238Z,25.30
2018-05-19T02:28:48.729Z,21.60
2018-05-19T02:31:17.026Z,22.60
2018-05-19T02:33:44.515Z,23.37
2018-05-19T02:36:12.006Z,27.50
2018-05-19T02:38:40.262Z,20.47
2018-05-19T02:41:07.779Z,22.10
2018-05-19T02:43:35.806Z,27.67
2018-05-19T02:46:03.309Z,23.30
2018-05-19T02:48:31.577Z,22.40
2018-05-19T02:50:59.058Z,23.90
2018-05-19T02:53:26.543Z,27.97
2018-05-19T02:55:54.036Z,22.57
2018-05-19T02:58:21.514Z,23.40
2018-05-19T03:00:48.997Z,20.27
2018-05-19T03:03:16.497Z,15.17
2018-05-19T03:05:44.756Z,20.63
2018-05-19T03:08:13.019Z,20.17
2018-05-19T03:10:40.519Z,25.03
2018-05-19T03:13:08.004Z,22.93
2018-05-19T03:15:35.506Z,18.03
2018-05-19T03:18:03.011Z,29.60
2018-05-19T03:20:30.509Z,26.93
2018-05-19T03:22:57.996Z,20.57
2018-05-19T03:25:26.253Z,23.00
2018-05-19T03:27:53.754Z,20.60
2018-05-19T03:30:21.233Z,22.13
2018-05-19T03:32:48.800Z,32.60
2018-05-19T03:35:16.218Z,23.80
2018-05-19T03:37:43.705Z,23.93
2018-05-19T03:40:11.181Z,22.43
2018-05-19T03:42:38.684Z,31.07
2018-05-19T03:45:06.930Z,27.53
2018-05-19T03:47:34.442Z,22.23
2018-05-19T03:50:01.934Z,25.13
2018-05-19T03:52:29.438Z,21.10
2018-05-19T03:54:57.695Z,28.90
2018-05-19T03:57:37.035Z,24.73
2018-05-19T04:00:16.474Z,25.83
2018-05-19T04:02:43.986Z,21.70
2018-05-19T04:05:11.561Z,24.83
2018-05-19T04:07:39.050Z,26.67
2018-05-19T04:10:06.544Z,19.90
2018-05-19T04:12:34.027Z,22.47
2018-05-19T04:15:01.517Z,20.43
2018-05-19T04:17:28.997Z,24.23
2018-05-19T04:19:56.499Z,28.93
2018-05-19T04:22:23.979Z,17.87
2018-05-19T04:24:51.470Z,21.60
2018-05-19T04:27:18.965Z,25.07
2018-05-19T04:29:47.212Z,30.93
2018-05-19T04:32:14.714Z,25.00
2018-05-19T04:34:42.202Z,23.37
2018-05-19T04:37:09.702Z,19.90
2018-05-19T04:39:37.198Z,22.23
2018-05-19T04:42:05.458Z,21.63
2018-05-19T04:44:32.946Z,26.07
2018-05-19T04:47:00.491Z,28.33
2018-05-19T04:49:28.743Z,23.70
2018-05-19T04:51:56.229Z,25.97
2018-05-19T04:54:23.709Z,24.10
2018-05-19T04:56:51.267Z,27.03
2018-05-19T04:59:19.475Z,23.33
2018-05-19T05:01:46.971Z,21.80
2018-05-19T05:04:14.455Z,22.73
2018-05-19T05:06:41.954Z,23.30
2018-05-19T05:09:09.451Z,25.70
2018-05-19T05:11:36.981Z,22.23
2018-05-19T05:14:04.485Z,17.07
2018-05-19T05:16:31.968Z,19.70
2018-05-19T05:18:59.484Z,20.93
2018-05-19T05:21:27.727Z,23.60
2018-05-19T05:23:55.277Z,18.93
2018-05-19T05:26:23.540Z,17.23
2018-05-19T05:28:51.121Z,20.40
2018-05-19T05:31:19.414Z,25.63
2018-05-19T05:33:46.914Z,29.77
2018-05-19T05:36:14.405Z,32.30
2018-05-19T05:38:41.931Z,20.87
2018-05-19T05:41:09.430Z,23.10
2018-05-19T05:43:36.910Z,23.80
2018-05-19T05:46:04.551Z,25.83
2018-05-19T05:48:32.843Z,19.93
2018-05-19T05:51:00.373Z,20.93
2018-05-19T05:53:27.851Z,18.63
2018-05-19T05:55:55.335Z,27.03
2018-05-19T05:58:22.845Z,26.67
2018-05-19T06:00:51.105Z,20.97
2018-05-19T06:03:19.365Z,25.50
2018-05-19T06:05:46.855Z,21.90
2018-05-19T06:08:14.357Z,31.30
2018-05-19T06:10:41.826Z,28.13
2018-05-19T06:13:09.321Z,26.27
2018-05-19T06:15:36.815Z,24.13
2018-05-19T06:18:05.297Z,30.70
2018-05-19T06:20:32.769Z,24.27
2018-05-19T06:23:00.256Z,35.10
2018-05-19T06:25:27.751Z,25.47
2018-05-19T06:27:55.234Z,28.30
2018-05-19T06:30:22.748Z,30.30
2018-05-19T06:32:50.247Z,27.43
2018-05-19T06:35:17.763Z,33.50
2018-05-19T06:37:45.229Z,21.67
2018-05-19T06:40:12.725Z,25.50
2018-05-19T06:42:40.220Z,22.13
2018-05-19T06:45:07.720Z,30.50
2018-05-19T06:47:35.963Z,21.37
2018-05-19T06:50:03.466Z,26.07
2018-05-19T06:52:30.945Z,27.03
2018-05-19T06:54:58.428Z,36.27
2018-05-19T06:57:25.917Z,20.47
2018-05-19T06:59:53.398Z,23.80
2018-05-19T07:02:20.889Z,31.27
2018-05-19T07:04:49.130Z,26.17
2018-05-19T07:07:17.382Z,25.90
2018-05-19T07:09:44.876Z,24.40
2018-05-19T07:12:12.372Z,29.00
2018-05-19T07:14:40.858Z,26.07
2018-05-19T07:17:08.382Z,31.60
2018-05-19T07:19:36.716Z,26.37
2018-05-19T07:22:04.223Z,30.43
2018-05-19T07:24:31.739Z,23.97
2018-05-19T07:26:59.271Z,28.60
2018-05-19T07:29:26.791Z,32.10
2018-05-19T07:31:54.294Z,28.13
2018-05-19T07:34:22.563Z,32.83
2018-05-19T07:36:50.108Z,30.13
2018-05-19T07:39:17.623Z,25.57
2018-05-19T07:41:45.165Z,29.13
2018-05-19T07:44:12.687Z,27.80
2018-05-19T07:46:40.967Z,29.27
2018-05-19T07:49:08.500Z,32.63
2018-05-19T07:51:36.702Z,31.43
2018-05-19T07:54:04.235Z,30.70
2018-05-19T07:56:31.747Z,34.30
2018-05-19T07:58:59.263Z,32.60
2018-05-19T08:01:27.558Z,28.70
2018-05-19T08:03:55.123Z,36.67
2018-05-19T08:06:22.632Z,31.00
2018-05-19T08:08:50.919Z,33.07
2018-05-19T08:11:18.446Z,28.33
2018-05-19T08:13:45.970Z,31.43
2018-05-19T08:16:13.643Z,32.23
2018-05-19T08:18:41.187Z,35.50
2018-05-19T08:21:09.532Z,28.57
2018-05-19T08:23:37.100Z,32.60
2018-05-19T08:26:04.674Z,27.70
2018-05-19T08:28:32.255Z,35.00
2018-05-19T08:31:00.538Z,30.93
2018-05-19T08:33:28.892Z,31.47
2018-05-19T08:35:56.486Z,30.07
2018-05-19T08:38:24.038Z,26.90
2018-05-19T08:40:51.595Z,35.27
2018-05-19T08:43:19.929Z,31.60
2018-05-19T08:45:47.455Z,25.47
2018-05-19T08:48:16.488Z,33.17
2018-05-19T08:50:44.444Z,28.27
2018-05-19T08:53:12.685Z,23.40
2018-05-19T08:55:41.049Z,29.17
2018-05-19T08:58:08.996Z,24.07
2018-05-19T09:00:37.396Z,26.30
2018-05-19T09:03:05.715Z,26.30
2018-05-19T09:05:33.353Z,26.50
2018-05-19T09:08:01.815Z,26.33
2018-05-19T09:10:29.392Z,29.83
2018-05-19T09:12:57.094Z,26.93
2018-05-19T09:15:25.623Z,22.63
2018-05-19T09:17:53.194Z,18.13
2018-05-19T09:20:20.763Z,21.43
2018-05-19T09:22:48.358Z,24.07
2018-05-19T09:25:15.943Z,23.50
2018-05-19T09:27:43.535Z,19.10
2018-05-19T09:30:11.084Z,28.70
2018-05-19T09:32:40.747Z,27.80
2018-05-19T09:35:08.354Z,28.63
2018-05-19T09:37:36.800Z,22.77
2018-05-19T09:40:05.867Z,21.50
2018-05-19T09:42:33.459Z,24.50
2018-05-19T09:45:01.056Z,26.50
2018-05-19T09:47:29.645Z,26.37
2018-05-19T09:49:57.218Z,23.37
2018-05-19T09:52:24.778Z,19.27
2018-05-19T09:54:53.105Z,18.43
2018-05-19T09:57:20.649Z,22.90
2018-05-19T09:59:48.217Z,24.20
2018-05-19T10:02:15.771Z,24.70
2018-05-19T10:04:44.395Z,22.73
2018-05-19T10:07:11.926Z,21.00
2018-05-19T10:09:40.288Z,21.87
2018-05-19T10:12:07.866Z,26.73
2018-05-19T10:14:35.950Z,22.90
2018-05-19T10:17:03.518Z,23.53
2018-05-19T10:19:31.094Z,24.20
2018-05-19T10:21:58.606Z,19.93
2018-05-19T10:24:26.143Z,21.17
2018-05-19T10:26:54.403Z,23.90
2018-05-19T10:29:21.918Z,22.80
2018-05-19T10:31:50.939Z,20.43
2018-05-19T10:34:18.467Z,24.43
2018-05-19T10:36:45.999Z,18.20
2018-05-19T10:39:13.543Z,26.33
2018-05-19T10:41:41.067Z,21.70
2018-05-19T10:44:08.616Z,28.93
2018-05-19T10:46:36.970Z,25.60
2018-05-19T10:49:06.063Z,27.83
2018-05-19T10:51:33.595Z,27.93
2018-05-19T10:54:01.145Z,27.60
2018-05-19T10:56:28.674Z,25.53
2018-05-19T10:58:56.198Z,23.70
2018-05-19T11:01:23.723Z,23.80
2018-05-19T11:03:51.263Z,23.33
2018-05-19T11:06:18.799Z,21.43
2018-05-19T11:08:46.335Z,29.93
2018-05-19T11:11:13.854Z,21.23
2018-05-19T11:13:42.127Z,17.97
2018-05-19T11:16:09.655Z,20.33
2018-05-19T11:18:37.236Z,20.13
2018-05-19T11:21:04.735Z,22.03
2018-05-19T11:23:32.268Z,27.90
2018-05-19T11:25:59.796Z,23.23
2018-05-19T11:28:27.323Z,16.70
2018-05-19T11:30:54.851Z,17.77
2018-05-19T11:33:22.368Z,18.20
2018-05-19T11:35:49.990Z,22.43
2018-05-19T11:38:17.475Z,18.07
2018-05-19T11:40:44.991Z,20.80
2018-05-19T11:43:12.491Z,14.77
2018-05-19T11:45:40.014Z,12.40
2018-05-19T11:48:07.527Z,22.97
2018-05-19T11:50:35.611Z,18.87
2018-05-19T11:53:03.071Z,23.13
2018-05-19T11:55:30.612Z,25.80
2018-05-19T11:57:58.133Z,22.70
2018-05-19T12:00:25.659Z,21.13
2018-05-19T12:02:53.175Z,20.33
2018-05-19T12:05:20.695Z,14.43
2018-05-19T12:07:48.211Z,23.43
2018-05-19T12:10:15.737Z,17.57
2018-05-19T12:12:43.272Z,14.30
2018-05-19T12:15:11.563Z,20.63
2018-05-19T12:17:39.846Z,19.73
2018-05-19T12:20:07.354Z,13.67
2018-05-19T12:22:35.672Z,9.20
2018-05-19T12:25:03.194Z,18.50
2018-05-19T12:27:30.710Z,19.87
2018-05-19T12:29:59.032Z,16.37
2018-05-19T12:32:27.340Z,15.73
2018-05-19T12:34:54.891Z,15.83
2018-05-19T12:37:22.433Z,20.93
2018-05-19T12:39:49.975Z,15.10
2018-05-19T12:42:18.299Z,12.90
2018-05-19T12:44:45.809Z,16.13
2018-05-19T12:47:13.336Z,25.73
2018-05-19T12:49:40.859Z,19.10
2018-05-19T12:52:08.383Z,18.23
2018-05-19T12:54:36.631Z,21.23
2018-05-19T12:57:04.168Z,28.10
2018-05-19T12:59:31.707Z,15.00
2018-05-19T13:01:59.238Z,20.63
2018-05-19T13:04:26.779Z,10.20
2018-05-19T13:06:54.302Z,23.47
2018-05-19T13:09:21.818Z,10.00
2018-05-19T13:11:50.086Z,15.60
2018-05-19T13:14:17.620Z,19.47
2018-05-19T13:16:45.904Z,19.77
2018-05-19T13:19:14.190Z,17.90
2018-05-19T13:21:41.735Z,14.40
2018-05-19T13:24:09.259Z,13.57
2018-05-19T13:26:37.095Z,16.23
2018-05-19T13:29:04.919Z,11.70
2018-05-19T13:31:32.445Z,16.40
2018-05-19T13:34:00.738Z,20.03
2018-05-19T13:36:29.047Z,18.87
2018-05-19T13:38:57.349Z,11.87
2018-05-19T13:41:24.914Z,13.90
2018-05-19T13:43:52.433Z,16.97
2018-05-19T13:46:19.959Z,13.43
2018-05-19T13:48:47.508Z,11.30
2018-05-19T13:51:15.047Z,12.77
2018-05-19T13:53:42.616Z,12.80
2018-05-19T13:56:10.955Z,19.67
2018-05-19T13:58:39.281Z,14.70
2018-05-19T14:01:06.873Z,19.50
2018-05-19T14:03:34.394Z,18.97
2018-05-19T14:06:01.931Z,15.53
2018-05-19T14:08:29.461Z,7.73
2018-05-19T14:10:56.983Z,9.03
2018-05-19T14:13:25.253Z,23.07
2018-05-19T14:15:52.787Z,13.07
2018-05-19T14:18:20.321Z,15.57
2018-05-19T14:20:47.870Z,27.80
2018-05-19T14:23:15.423Z,10.80
2018-05-19T14:25:43.739Z,15.87
2018-05-19T14:28:11.277Z,6.73
2018-05-19T14:30:38.809Z,9.23
2018-05-19T14:33:06.847Z,12.60
2018-05-19T14:35:34.387Z,10.73
2018-05-19T14:38:01.944Z,13.13
2018-05-19T14:40:30.304Z,8.43
2018-05-19T14:42:58.578Z,13.97
2018-05-19T14:45:26.095Z,17.07
2018-05-19T14:47:53.680Z,15.40
2018-05-19T14:50:21.253Z,21.00
2018-05-19T14:52:48.799Z,15.73
2018-05-19T14:55:17.126Z,20.07
2018-05-19T15:00:18.625Z,11.73
2018-05-19T15:02:46.953Z,21.53
2018-05-19T15:05:14.466Z,14.77
2018-05-19T15:07:42.030Z,16.47
2018-05-19T15:10:09.621Z,14.60
2018-05-19T15:12:37.182Z,13.97
2018-05-19T15:15:05.014Z,10.67
2018-05-19T15:17:32.566Z,16.13
2018-05-19T15:20:00.110Z,11.63
2018-05-19T15:22:28.396Z,18.83
2018-05-19T15:24:56.718Z,16.93
2018-05-19T15:27:25.025Z,18.43
2018-05-19T15:29:53.375Z,18.20
2018-05-19T15:32:20.898Z,14.03
2018-05-19T15:34:48.462Z,11.10
2018-05-19T15:37:16.002Z,16.47
2018-05-19T15:39:43.543Z,8.83
2018-05-19T15:42:11.075Z,9.80
2018-05-19T15:44:38.634Z,7.13
2018-05-19T15:47:06.926Z,16.20
2018-05-19T15:49:35.975Z,13.50
2018-05-19T15:52:03.441Z,15.80
2018-05-19T15:54:30.990Z,14.20
2018-05-19T15:56:58.556Z,12.80
2018-05-19T15:59:26.863Z,16.40
2018-05-19T16:01:54.411Z,16.10
2018-05-19T16:04:21.945Z,8.43
2018-05-19T16:06:49.453Z,14.60
2018-05-19T16:09:17.780Z,8.53
2018-05-19T16:11:45.319Z,11.50
2018-05-19T16:14:12.811Z,9.27
2018-05-19T16:16:40.344Z,9.83
2018-05-19T16:19:07.865Z,17.03
2018-05-19T16:21:35.904Z,11.67
2018-05-19T16:24:03.434Z,13.97
2018-05-19T16:26:30.963Z,10.80
2018-05-19T16:28:58.479Z,13.30
2018-05-19T16:34:38.000Z,15.17
2018-05-19T16:37:07.332Z,12.07
2018-05-19T16:39:34.976Z,16.70
2018-05-19T16:42:22.107Z,18.47
2018-05-19T16:44:51.362Z,11.77
2018-05-19T16:47:21.794Z,15.00
2018-05-19T16:49:50.147Z,16.23
2018-05-19T16:55:10.597Z,15.23
2018-05-19T16:57:38.221Z,12.70
2018-05-19T17:03:27.573Z,13.80
2018-05-19T17:06:00.071Z,9.33
2018-05-19T17:09:34.192Z,13.77
2018-05-19T17:26:45.840Z,13.57
2018-05-19T17:29:13.403Z,8.47
2018-05-19T17:31:41.735Z,14.07
2018-05-19T17:34:09.325Z,15.17
2018-05-19T17:36:39.744Z,9.67
2018-05-19T17:39:08.261Z,11.40
2018-05-19T17:41:36.172Z,13.10
2018-05-19T17:44:06.557Z,13.57
2018-05-19T17:46:36.584Z,12.77
2018-05-19T17:49:06.096Z,9.27
2018-05-19T17:51:33.724Z,9.60
2018-05-19T17:54:18.843Z,11.20
2018-05-19T17:56:47.342Z,14.20
2018-05-19T17:59:15.679Z,12.70
2018-05-19T18:01:43.267Z,16.93
2018-05-19T18:04:10.818Z,17.43
2018-05-19T18:06:38.348Z,12.30
2018-05-19T18:09:08.837Z,12.77
2018-05-19T18:11:37.175Z,13.43
2018-05-19T18:14:06.283Z,11.73
2018-05-19T18:16:34.580Z,13.53
2018-05-19T18:19:02.889Z,11.40
2018-05-19T18:21:31.166Z,11.50
2018-05-19T18:23:58.686Z,13.80
2018-05-19T18:26:26.966Z,13.63
2018-05-19T18:28:54.530Z,11.47
2018-05-19T18:31:22.057Z,18.23
2018-05-19T18:33:49.610Z,9.57
2018-05-19T18:36:17.128Z,11.97
2018-05-19T18:38:44.658Z,15.93
2018-05-19T18:41:12.183Z,14.43
2018-05-19T18:43:40.483Z,9.47
2018-05-19T18:46:08.795Z,11.83
2018-05-19T18:48:37.147Z,13.57
2018-05-19T18:51:04.959Z,12.00
2018-05-19T18:53:32.507Z,15.30
2018-05-19T18:56:00.032Z,13.93
2018-05-19T18:58:27.548Z,11.90
2018-05-19T19:00:55.072Z,6.97
2018-05-19T19:03:22.598Z,9.17
2018-05-19T19:05:50.895Z,13.33
2018-05-19T19:08:19.175Z,9.47
2018-05-19T19:10:46.706Z,8.67
2018-05-19T19:13:14.217Z,12.90
2018-05-19T19:15:41.743Z,19.40
2018-05-19T19:18:09.287Z,12.57
2018-05-19T19:20:37.583Z,10.77
2018-05-19T19:23:05.108Z,9.63
2018-05-19T19:25:33.409Z,13.63
2018-05-19T19:28:00.923Z,10.30
2018-05-19T19:30:28.439Z,9.27
2018-05-19T19:32:55.973Z,10.70
2018-05-19T19:35:24.251Z,15.70
2018-05-19T19:37:51.750Z,12.10
2018-05-19T19:40:20.092Z,10.07
2018-05-19T19:42:48.359Z,7.17
2018-05-19T19:45:15.874Z,8.77
2018-05-19T19:47:43.379Z,8.17
2018-05-19T19:50:10.987Z,12.03
2018-05-19T19:52:39.212Z,7.87
2018-05-19T19:55:07.488Z,5.30
2018-05-19T19:57:35.018Z,15.80
2018-05-19T20:00:02.608Z,6.07
2018-05-19T20:02:31.185Z,8.00
2018-05-19T20:04:59.770Z,12.30
2018-05-19T20:07:27.737Z,12.80
2018-05-19T20:09:56.461Z,14.20
2018-05-19T20:12:24.387Z,13.97
2018-05-19T20:14:51.940Z,18.20
2018-05-19T20:17:19.475Z,12.43
2018-05-19T20:19:47.754Z,16.93
2018-05-19T20:22:15.295Z,12.60
2018-05-19T20:24:42.802Z,14.00
2018-05-19T20:27:10.346Z,11.53
2018-05-19T20:29:37.864Z,8.80
2018-05-19T20:32:06.026Z,13.90
2018-05-19T20:34:33.566Z,15.60
2018-05-19T20:37:01.127Z,16.80
2018-05-19T20:39:29.519Z,15.23
2018-05-19T20:41:56.999Z,11.60
2018-05-19T20:44:24.518Z,17.07
2018-05-19T20:46:52.969Z,15.33
2018-05-19T20:49:20.531Z,11.90
2018-05-19T20:51:48.815Z,13.20
2018-05-19T20:54:16.387Z,13.63
2018-05-19T20:56:43.916Z,10.07
2018-05-19T20:59:11.431Z,15.90
2018-05-19T21:01:38.965Z,17.30
2018-05-19T21:04:07.250Z,14.40
2018-05-19T21:06:45.844Z,13.83
2018-05-19T21:09:20.358Z,11.10
2018-05-19T21:25:24.677Z,17.80
2018-05-19T21:27:52.146Z,13.93
2018-05-19T21:30:19.628Z,12.20
2018-05-19T21:32:47.102Z,12.70
2018-05-19T21:35:14.583Z,14.00
2018-05-19T21:37:42.070Z,14.37
2018-05-19T21:40:09.554Z,15.67
2018-05-19T21:42:37.031Z,17.27
2018-05-19T21:45:04.495Z,13.20
2018-05-19T21:47:32.736Z,18.67
2018-05-19T21:50:00.222Z,11.77
2018-05-19T21:52:27.692Z,19.53
2018-05-19T21:54:55.165Z,14.33
2018-05-19T21:57:22.691Z,14.33
2018-05-19T21:59:50.125Z,13.00
2018-05-19T22:02:17.611Z,17.07
2018-05-19T22:04:45.085Z,15.80
2018-05-19T22:07:12.577Z,13.50
2018-05-19T22:09:40.061Z,15.00
2018-05-19T22:12:07.541Z,14.70
2018-05-19T22:14:35.095Z,13.33
2018-05-19T22:17:03.343Z,12.80
2018-05-19T22:19:30.818Z,15.40
2018-05-19T22:21:58.311Z,16.40
2018-05-19T22:24:25.791Z,17.87
2018-05-19T22:26:53.291Z,15.37
2018-05-19T22:29:20.793Z,14.70
2018-05-19T22:31:48.281Z,15.67
2018-05-19T22:34:15.771Z,14.33
2018-05-19T22:36:43.269Z,14.87
2018-05-19T22:39:10.743Z,15.43
2018-05-19T22:41:39.014Z,11.97
2018-05-19T22:44:07.276Z,8.47
2018-05-19T22:46:34.759Z,11.77
2018-05-19T22:49:02.709Z,14.80
2018-05-19T22:51:30.184Z,10.60
2018-05-19T22:53:57.683Z,16.33
2018-05-19T22:56:25.167Z,11.90
2018-05-19T22:58:52.663Z,11.40
2018-05-19T23:01:20.902Z,10.50
2018-05-19T23:03:48.385Z,15.37
2018-05-19T23:06:15.871Z,14.63
2018-05-19T23:08:43.354Z,9.40
2018-05-19T23:11:10.840Z,9.30
2018-05-19T23:13:38.322Z,6.87
2018-05-19T23:16:06.341Z,7.80
2018-05-19T23:18:33.829Z,8.20
2018-05-19T23:21:01.304Z,6.97
2018-05-19T23:23:28.796Z,7.20
2018-05-19T23:25:56.279Z,9.60
2018-05-19T23:28:23.762Z,8.50
2018-05-19T23:30:51.244Z,11.83
2018-05-19T23:33:18.728Z,5.87
2018-05-19T23:35:46.226Z,5.30
2018-05-19T23:38:14.462Z,5.13
2018-05-19T23:40:41.940Z,7.80
2018-05-19T23:43:09.509Z,6.20
2018-05-19T23:45:37.750Z,5.13
2018-05-19T23:48:05.503Z,10.30
2018-05-19T23:50:32.982Z,8.63
2018-05-19T23:53:00.463Z,5.67
2018-05-19T23:55:27.948Z,5.20
2018-05-19T23:57:55.419Z,9.13
